Time;durP1;ratioP1;P1;durP2;ratioP2;P2;SDS_P1;SDS_P2;PMS_P1;PMS_P2;Temp;Humidity;BMP_temperature;BMP_pressure;BME280_temperature;BME280_humidity;BME280_pressure;Samples;Min_cycle;Max_cycle;Signal;HPM_P1;HPM_P2
2022/06/09 00:00:24;;;;;;;;;3.50;3.50;;;;;17.28;100.00;101047.50;5057009;28;45380;-83
2022/06/09 00:02:54;;;;;;;;;2.00;1.50;;;;;17.31;100.00;101049.28;5056988;28;45318;-83
2022/06/09 00:05:22;;;;;;;;;2.25;2.00;;;;;17.30;100.00;101063.22;5057233;28;45464;-83
2022/06/09 00:07:51;;;;;;;;;2.50;2.50;;;;;17.24;100.00;101053.50;5056838;28;46183;-83
2022/06/09 00:10:21;;;;;;;;;3.00;3.00;;;;;17.27;100.00;101068.41;5055616;28;45406;-83
2022/06/09 00:12:46;;;;;;;;;2.00;2.00;;;;;17.21;100.00;101069.16;5059178;28;45442;-83
2022/06/09 00:15:13;;;;;;;;;3.00;3.00;;;;;17.05;100.00;101061.81;5058187;28;45219;-83
2022/06/09 00:17:40;;;;;;;;;2.00;0.75;;;;;17.02;100.00;101073.09;5057332;28;45550;-83
2022/06/09 00:20:07;;;;;;;;;3.00;2.00;;;;;17.06;100.00;101080.13;5056067;28;45918;-83
2022/06/09 00:22:33;;;;;;;;;6.50;3.00;;;;;16.98;100.00;101073.84;5056568;28;45369;-83
2022/06/09 00:24:59;;;;;;;;;4.00;3.00;;;;;16.99;100.00;101092.22;5056414;28;45472;-82
2022/06/09 00:27:25;;;;;;;;;7.00;3.00;;;;;16.93;100.00;101078.94;5056166;28;45348;-83
2022/06/09 00:29:51;;;;;;;;;3.00;2.00;;;;;16.85;100.00;101080.50;5056825;28;45700;-83
2022/06/09 00:32:17;;;;;;;;;3.75;1.50;;;;;16.83;100.00;101084.81;5040713;28;45347;-83
2022/06/09 00:34:42;;;;;;;;;1.50;1.50;;;;;16.82;100.00;101094.41;5064303;28;45481;-83
2022/06/09 00:37:08;;;;;;;;;2.00;2.00;;;;;16.79;100.00;101098.69;5041333;28;45967;-83
2022/06/09 00:39:33;;;;;;;;;2.75;2.00;;;;;16.81;100.00;101096.97;5057911;28;45441;-83
2022/06/09 00:41:59;;;;;;;;;1.75;1.75;;;;;16.78;100.00;101096.91;5056401;28;45319;-83
2022/06/09 00:44:29;;;;;;;;;3.00;1.75;;;;;16.75;100.00;101087.25;5056659;28;45309;-83
2022/06/09 00:47:35;;;;;;;;;4.25;3.00;;;;;16.61;100.00;101081.69;5057902;28;45701;-82
2022/06/09 00:50:05;;;;;;;;;2.25;2.25;;;;;16.67;100.00;101099.25;4975070;28;45335;-83
2022/06/09 00:52:40;;;;;;;;;3.75;2.25;;;;;16.55;100.00;101086.78;4977803;28;45446;-83
2022/06/09 00:55:12;;;;;;;;;1.25;1.00;;;;;16.58;100.00;101093.81;5023241;28;45456;-83
2022/06/09 00:57:47;;;;;;;;;2.50;1.00;;;;;16.55;100.00;101099.84;5060013;28;45944;-83
2022/06/09 01:00:19;;;;;;;;;3.75;2.00;;;;;16.49;100.00;101097.97;5060195;28;45261;-83
2022/06/09 01:02:45;;;;;;;;;3.25;1.50;;;;;16.47;100.00;101103.97;5060625;28;45288;-83
2022/06/09 01:05:15;;;;;;;;;2.50;2.00;;;;;16.46;100.00;101102.25;5060021;28;45240;-83
2022/06/09 01:07:48;;;;;;;;;1.75;1.75;;;;;16.42;100.00;101106.47;5059282;28;46196;-83
2022/06/09 01:10:14;;;;;;;;;1.00;1.00;;;;;16.37;100.00;101114.19;5059477;28;45683;-83
2022/06/09 01:12:43;;;;;;;;;2.00;2.00;;;;;16.28;100.00;101095.69;5059799;28;45392;-83
2022/06/09 01:15:18;;;;;;;;;2.00;1.00;;;;;16.33;100.00;101106.25;5064061;28;45246;-82
2022/06/09 01:17:51;;;;;;;;;4.25;1.50;;;;;16.28;100.00;101110.47;5065578;28;45277;-83
2022/06/09 01:20:36;;;;;;;;;2.50;1.25;;;;;16.22;100.00;101109.47;5061394;28;45727;-82
2022/06/09 01:23:13;;;;;;;;;3.50;2.00;;;;;16.19;100.00;101114.63;5063456;28;44717;-83
2022/06/09 01:26:10;;;;;;;;;2.25;1.00;;;;;16.03;100.00;101087.22;5059513;28;45323;-83
2022/06/09 01:29:06;;;;;;;;;3.00;2.00;;;;;16.11;100.00;101110.91;5059252;28;45347;-83
2022/06/09 01:31:48;;;;;;;;;1.75;1.75;;;;;16.05;100.00;101119.47;5059228;28;45247;-83
2022/06/09 01:34:50;;;;;;;;;1.50;1.00;;;;;16.01;100.00;101119.34;5059005;28;45362;-83
2022/06/09 01:37:21;;;;;;;;;2.50;1.75;;;;;16.00;100.00;101122.78;4938765;28;45430;-82
2022/06/09 01:39:53;;;;;;;;;5.00;2.00;;;;;16.00;100.00;101131.53;5039067;28;46581;-83
2022/06/09 01:42:27;;;;;;;;;5.00;1.75;;;;;15.98;100.00;101133.19;5063687;28;45630;-82
2022/06/09 01:44:58;;;;;;;;;3.25;1.00;;;;;15.98;100.00;101129.72;5062722;28;45384;-83
2022/06/09 01:47:32;;;;;;;;;3.25;0.75;;;;;15.94;100.00;101129.63;5041162;28;45363;-83
2022/06/09 01:50:02;;;;;;;;;2.50;0.75;;;;;15.97;100.00;101141.00;5058822;28;45508;-83
2022/06/09 01:52:29;;;;;;;;;4.25;1.25;;;;;15.88;100.00;101126.81;5059138;28;45162;-83
2022/06/09 01:54:56;;;;;;;;;4.00;2.00;;;;;15.91;100.00;101136.50;5059017;28;45500;-83
2022/06/09 01:57:28;;;;;;;;;4.25;2.00;;;;;15.88;100.00;101132.06;5061160;28;45390;-83
2022/06/09 02:00:07;;;;;;;;;1.50;1.50;;;;;15.94;100.00;101139.16;5065011;28;46361;-83
2022/06/09 02:02:39;;;;;;;;;2.50;1.50;;;;;15.93;100.00;101140.00;5062670;28;45391;-83
2022/06/09 02:05:10;;;;;;;;;1.75;1.75;;;;;15.96;100.00;101149.69;5060698;28;45266;-83
2022/06/09 02:07:39;;;;;;;;;1.75;0.75;;;;;15.94;100.00;101152.22;5061484;28;45339;-83
2022/06/09 02:10:19;;;;;;;;;4.25;1.75;;;;;15.96;100.00;101147.06;5041083;28;47288;-83
2022/06/09 02:12:46;;;;;;;;;0.75;0.75;;;;;15.94;100.00;101153.13;5059020;28;45428;-83
2022/06/09 02:15:18;;;;;;;;;2.75;2.25;;;;;15.89;100.00;101148.63;5040101;28;45430;-83
2022/06/09 02:17:47;;;;;;;;;1.50;1.50;;;;;15.92;100.00;101154.81;5058652;28;45331;-83
2022/06/09 02:20:14;;;;;;;;;2.00;0.75;;;;;15.90;100.00;101151.25;5058043;28;45371;-83
2022/06/09 02:22:40;;;;;;;;;3.25;1.00;;;;;15.90;100.00;101161.72;5058101;28;45254;-83
2022/06/09 02:25:06;;;;;;;;;4.00;2.00;;;;;15.85;100.00;101151.97;5058180;28;45402;-83
2022/06/09 02:27:32;;;;;;;;;3.25;2.75;;;;;15.88;100.00;101162.50;5040532;28;45259;-83
2022/06/09 02:29:57;;;;;;;;;2.25;1.25;;;;;15.83;100.00;101156.22;5058017;28;45512;-82
2022/06/09 02:32:23;;;;;;;;;5.75;2.50;;;;;15.83;100.00;101162.34;5059610;28;45426;-82
2022/06/09 02:34:49;;;;;;;;;3.00;2.00;;;;;15.81;100.00;101157.94;5062168;28;45327;-82
2022/06/09 02:37:15;;;;;;;;;3.00;2.00;;;;;15.73;100.00;101150.75;5058383;28;45406;-82
2022/06/09 02:39:41;;;;;;;;;3.00;1.75;;;;;15.80;100.00;101162.25;5057358;28;47490;-83
2022/06/09 02:42:07;;;;;;;;;5.00;2.75;;;;;15.74;100.00;101155.13;5064364;28;45834;-83
2022/06/09 02:44:34;;;;;;;;;1.50;1.25;;;;;15.75;100.00;101156.03;5049283;28;45463;-83
2022/06/09 02:46:59;;;;;;;;;5.50;1.75;;;;;15.79;100.00;101163.09;5061665;28;45186;-83
2022/06/09 02:49:26;;;;;;;;;2.25;1.00;;;;;15.71;100.00;101148.94;5060156;28;46067;-82
2022/06/09 02:51:53;;;;;;;;;2.00;1.00;;;;;15.82;100.00;101170.16;5058563;28;45863;-82
2022/06/09 02:54:18;;;;;;;;;1.75;1.75;;;;;15.82;100.00;101168.41;5058678;28;45971;-82
2022/06/09 02:56:44;;;;;;;;;1.50;1.50;;;;;15.78;100.00;101156.09;5058721;28;45438;-83
2022/06/09 02:59:11;;;;;;;;;2.50;1.75;;;;;15.84;100.00;101174.59;5039527;28;47463;-83
2022/06/09 03:01:36;;;;;;;;;2.25;1.00;;;;;15.86;100.00;101174.63;5056252;28;45303;-83
2022/06/09 03:04:05;;;;;;;;;0.75;0.75;;;;;15.86;100.00;101178.16;5057773;28;45367;-83
2022/06/09 03:06:31;;;;;;;;;1.75;0.75;;;;;15.86;100.00;101174.63;5058385;28;45284;-82
2022/06/09 03:08:56;;;;;;;;;8.00;3.75;;;;;15.89;100.00;101179.94;5059158;28;45306;-83
2022/06/09 03:11:22;;;;;;;;;3.75;2.00;;;;;15.85;100.00;101178.97;5058138;28;45304;-83
2022/06/09 03:13:48;;;;;;;;;6.75;3.00;;;;;15.82;100.00;101176.25;5057139;28;45494;-83
2022/06/09 03:16:14;;;;;;;;;3.75;2.00;;;;;15.83;100.00;101162.34;5057463;28;45594;-83
2022/06/09 03:18:42;;;;;;;;;5.50;3.50;;;;;15.87;100.00;101172.09;5057240;28;45547;-82
2022/06/09 03:21:15;;;;;;;;;3.25;1.25;;;;;15.81;100.00;101166.63;5059647;28;45811;-82
2022/06/09 03:23:41;;;;;;;;;2.00;2.00;;;;;15.88;100.00;101173.81;5060564;28;45395;-84
2022/06/09 03:26:07;;;;;;;;;5.00;2.75;;;;;15.84;100.00;101164.16;5064510;28;45442;-83
2022/06/09 03:28:34;;;;;;;;;1.25;1.25;;;;;15.83;100.00;101177.09;5060246;28;45427;-82
2022/06/09 03:30:59;;;;;;;;;4.50;2.75;;;;;15.85;100.00;101176.38;5059102;28;45209;-82
2022/06/09 03:33:25;;;;;;;;;3.75;3.00;;;;;15.71;100.00;101160.25;5058136;28;45286;-82
2022/06/09 03:35:51;;;;;;;;;3.00;2.50;;;;;15.70;100.00;101168.03;5059888;28;45546;-83
2022/06/09 03:38:17;;;;;;;;;4.00;1.75;;;;;15.74;100.00;101181.22;5057329;28;45432;-82
2022/06/09 03:40:42;;;;;;;;;4.75;2.75;;;;;15.72;100.00;101187.25;5057045;28;45194;-82
2022/06/09 03:43:08;;;;;;;;;3.00;2.50;;;;;15.72;100.00;101182.91;5057063;28;45514;-82
2022/06/09 03:45:34;;;;;;;;;3.25;2.25;;;;;15.78;100.00;101201.38;5039340;28;45382;-82
2022/06/09 03:48:01;;;;;;;;;4.25;3.00;;;;;15.70;100.00;101189.84;5056700;28;46283;-81
2022/06/09 03:50:29;;;;;;;;;5.00;2.00;;;;;15.82;100.00;101204.09;5038980;28;45932;-82
2022/06/09 03:52:55;;;;;;;;;6.50;3.25;;;;;15.82;100.00;101204.09;5056896;28;45232;-83
2022/06/09 03:55:21;;;;;;;;;4.25;2.75;;;;;15.79;100.00;101212.69;5057741;28;45261;-83
2022/06/09 03:57:47;;;;;;;;;2.50;1.75;;;;;15.67;100.00;101210.63;5038704;28;47880;-83
2022/06/09 04:00:25;;;;;;;;;6.25;3.00;;;;;15.70;100.00;101226.38;5055474;28;45276;-83
2022/06/09 04:02:50;;;;;;;;;4.00;2.00;;;;;15.71;100.00;101241.16;5038831;28;45477;-83
2022/06/09 04:05:16;;;;;;;;;2.00;2.00;;;;;15.70;100.00;101228.09;5056618;28;45598;-83
2022/06/09 04:07:43;;;;;;;;;4.50;3.00;;;;;15.67;100.00;101236.72;5087839;27;45437;-82
2022/06/09 04:10:16;;;;;;;;;4.50;3.00;;;;;15.60;100.00;101224.31;5089348;27;45537;-82
2022/06/09 04:12:41;;;;;;;;;3.25;2.00;;;;;15.56;100.00;101212.88;5091714;27;45358;-81
2022/06/09 04:15:07;;;;;;;;;5.25;1.75;;;;;15.63;100.00;101221.78;5082662;27;45332;-83
2022/06/09 04:17:34;;;;;;;;;1.50;1.50;;;;;15.61;100.00;101224.38;5083356;27;45775;-80
2022/06/09 04:20:00;;;;;;;;;5.00;2.25;;;;;15.58;100.00;101224.25;5082583;27;45638;-80
2022/06/09 04:22:26;;;;;;;;;3.00;2.75;;;;;15.62;100.00;101238.28;5086522;27;45187;-79
2022/06/09 04:24:51;;;;;;;;;3.75;2.75;;;;;15.58;100.00;101233.81;5100406;27;45184;-80
2022/06/09 04:27:17;;;;;;;;;4.25;3.25;;;;;15.60;100.00;101242.59;5097593;27;46231;-81
2022/06/09 04:29:42;;;;;;;;;3.00;2.25;;;;;15.60;100.00;101242.59;5097101;27;45345;-80
2022/06/09 04:32:08;;;;;;;;;2.50;1.50;;;;;15.62;100.00;101247.00;5096897;27;45517;-80
2022/06/09 04:34:33;;;;;;;;;3.00;2.50;;;;;15.60;100.00;101261.72;5078700;27;45671;-80
2022/06/09 04:36:59;;;;;;;;;4.00;2.50;;;;;15.60;100.00;101260.88;5096763;27;45640;-80
2022/06/09 04:39:25;;;;;;;;;3.50;2.75;;;;;15.60;100.00;101266.09;5096953;27;45343;-82
2022/06/09 04:41:50;;;;;;;;;5.25;2.00;;;;;15.61;100.00;101258.28;5097244;27;45426;-81
2022/06/09 04:44:16;;;;;;;;;2.25;1.50;;;;;15.56;100.00;101262.47;5096836;27;45526;-78
2022/06/09 04:46:41;;;;;;;;;4.75;2.25;;;;;15.55;100.00;101268.53;5096649;27;46216;-80
2022/06/09 04:49:07;;;;;;;;;4.00;3.25;;;;;15.57;100.00;101277.28;5085911;27;45358;-77
2022/06/09 04:51:33;;;;;;;;;3.50;2.25;;;;;15.57;100.00;101282.50;5087929;28;45426;-77
2022/06/09 04:53:58;;;;;;;;;4.00;3.00;;;;;15.58;100.00;101279.06;5083745;28;45822;-79
2022/06/09 04:56:25;;;;;;;;;5.00;3.50;;;;;15.54;100.00;101278.91;5082407;27;45914;-80
2022/06/09 04:58:51;;;;;;;;;5.00;2.50;;;;;15.60;100.00;101284.34;5077031;27;45228;-82
2022/06/09 05:01:29;;;;;;;;;3.50;2.25;;;;;15.60;100.00;101297.41;5077684;28;45357;-79
2022/06/09 05:03:56;;;;;;;;;3.00;3.00;;;;;15.56;100.00;101283.34;5078415;28;45299;-78
2022/06/09 05:06:24;;;;;;;;;2.75;2.50;;;;;15.64;100.00;101294.03;5078745;28;45436;-79
2022/06/09 05:08:52;;;;;;;;;2.50;2.50;;;;;15.58;100.00;101286.03;5078363;27;45443;-82
2022/06/09 05:11:17;;;;;;;;;4.50;2.50;;;;;15.64;100.00;101291.44;5077445;28;45262;-82
2022/06/09 05:13:44;;;;;;;;;5.00;4.25;;;;;15.59;100.00;101282.59;5076122;28;45434;-82
2022/06/09 05:16:10;;;;;;;;;4.50;2.50;;;;;15.59;100.00;101285.19;5075845;28;45951;-82
2022/06/09 05:18:37;;;;;;;;;4.75;3.25;;;;;15.67;100.00;101308.91;5075906;28;45840;-80
2022/06/09 05:21:04;;;;;;;;;3.75;2.75;;;;;15.58;100.00;101291.25;5075678;28;45374;-83
2022/06/09 05:23:30;;;;;;;;;5.00;3.50;;;;;15.67;100.00;101320.25;5076645;28;45310;-78
2022/06/09 05:26:00;;;;;;;;;5.00;3.00;;;;;15.67;100.00;101321.94;5074614;27;45430;-84
2022/06/09 05:28:28;;;;;;;;;4.50;3.75;;;;;15.66;100.00;101318.47;5058905;28;45866;-79
2022/06/09 05:30:54;;;;;;;;;3.00;3.00;;;;;15.67;100.00;101325.47;5076150;27;45379;-78
2022/06/09 05:33:21;;;;;;;;;3.75;2.75;;;;;15.66;100.00;101322.81;5082948;28;45624;-80
2022/06/09 05:35:49;;;;;;;;;4.50;3.00;;;;;15.61;100.00;101325.25;5080497;28;45308;-84
2022/06/09 05:46:29;;;;;;;;;5.25;3.75;;;;;15.67;100.00;101338.53;5078518;28;45338;-77
2022/06/09 05:48:55;;;;;;;;;4.75;2.00;;;;;15.60;100.00;101321.78;5079073;27;45806;-79
2022/06/09 05:51:20;;;;;;;;;3.00;3.00;;;;;15.60;100.00;101320.91;5078606;27;45421;-78
2022/06/09 05:53:50;;;;;;;;;3.50;2.50;;;;;15.83;100.00;101349.44;5078960;27;45839;-81
2022/06/09 05:56:16;;;;;;;;;3.75;2.00;;;;;15.83;100.00;101349.44;5079455;27;46072;-79
2022/06/09 05:58:42;;;;;;;;;4.75;2.50;;;;;15.83;100.00;101344.22;5079252;27;45284;-82
2022/06/09 06:01:11;;;;;;;;;6.00;4.00;;;;;15.86;100.00;101357.41;5080005;28;45490;-84
2022/06/09 06:03:38;;;;;;;;;5.50;3.25;;;;;15.92;100.00;101353.28;5061312;28;45581;-83
2022/06/09 06:08:48;;;;;;;;;3.75;2.00;;;;;16.02;100.00;101358.78;5077734;28;45407;-85
2022/06/09 06:11:16;;;;;;;;;5.00;3.50;;;;;16.06;100.00;101356.31;5079981;28;45552;-83
2022/06/09 06:13:43;;;;;;;;;4.00;2.75;;;;;16.16;100.00;101361.81;5081664;28;45533;-84
2022/06/09 06:16:09;;;;;;;;;3.75;2.00;;;;;16.35;100.00;101373.72;5085432;27;45394;-81
2022/06/09 06:18:35;;;;;;;;;3.75;2.25;;;;;16.51;100.00;101369.81;5084153;28;45430;-82
2022/06/09 06:21:01;;;;;;;;;5.75;2.75;;;;;16.71;100.00;101379.13;5082795;28;45426;-84
2022/06/09 06:23:27;;;;;;;;;2.50;2.50;;;;;16.89;100.00;101375.28;5082085;28;45388;-89
2022/06/09 06:25:54;;;;;;;;;6.00;4.50;;;;;16.90;100.00;101373.53;5081157;28;45441;-87
2022/06/09 06:28:20;;;;;;;;;2.75;2.50;;;;;16.95;100.00;101387.69;5081822;28;45642;-84
2022/06/09 06:30:46;;;;;;;;;5.00;2.25;;;;;16.88;100.00;101373.50;5079913;27;45385;-87
2022/06/09 06:33:12;;;;;;;;;5.50;3.75;;;;;16.96;100.00;101384.19;5080054;28;45303;-89
2022/06/09 06:35:38;;;;;;;;;4.75;2.00;;;;;16.86;100.00;101354.25;5081001;27;45346;-87
2022/06/09 06:38:04;;;;;;;;;0.00;0.00;;;;;17.05;100.00;101378.34;5079545;28;45426;-81
2022/06/09 06:40:30;;;;;;;;;5.50;4.75;;;;;17.03;100.00;101380.94;5083055;28;45448;-79
2022/06/09 06:42:56;;;;;;;;;5.25;5.00;;;;;17.03;100.00;101375.69;5094226;27;45248;-90
2022/06/09 06:45:22;;;;;;;;;4.50;3.00;;;;;17.06;100.00;101380.97;5099710;27;45346;-79
2022/06/09 06:47:50;;;;;;;;;3.75;3.75;;;;;16.97;100.00;101391.19;5092849;28;45441;-82
2022/06/09 06:50:16;;;;;;;;;5.00;3.75;;;;;16.84;100.00;101401.31;5069351;28;45223;-92
2022/06/09 06:52:42;;;;;;;;;4.75;3.00;;;;;16.73;100.00;101407.06;5086389;28;45434;-91
2022/06/09 06:55:12;;;;;;;;;6.50;3.75;;;;;16.63;100.00;101409.41;5091760;28;45327;-78
2022/06/09 06:57:38;;;;;;;;;7.25;2.25;;;;;16.51;100.00;101393.34;5098583;28;45630;-78
2022/06/09 07:00:06;;;;;;;;;5.00;3.25;;;;;16.49;100.00;101395.03;5085872;28;45275;-77
2022/06/09 07:02:32;;;;;;;;;5.50;4.00;;;;;16.49;100.00;101398.53;5081612;28;45342;-80
2022/06/09 07:04:57;;;;;;;;;6.75;5.50;;;;;16.38;100.00;101386.88;5079547;28;45502;-79
2022/06/09 07:07:24;;;;;;;;;7.00;2.75;;;;;16.37;100.00;101406.00;5081938;28;45268;-85
2022/06/09 07:09:51;;;;;;;;;9.25;3.25;;;;;16.54;100.00;101430.91;5078691;28;45285;-76
2022/06/09 07:12:16;;;;;;;;;4.25;4.00;;;;;16.46;100.00;101411.50;5076901;27;45334;-86
2022/06/09 07:14:42;;;;;;;;;4.00;4.00;;;;;16.61;100.00;101433.75;5080058;27;45802;-88
2022/06/09 07:17:08;;;;;;;;;7.75;4.75;;;;;16.55;100.00;101421.38;5061310;28;45359;-78
2022/06/09 07:19:33;;;;;;;;;5.00;5.00;;;;;16.53;100.00;101434.38;5077268;28;45560;-80
2022/06/09 07:21:59;;;;;;;;;3.50;3.00;;;;;16.53;100.00;101438.72;5077064;27;45491;-82
2022/06/09 07:24:25;;;;;;;;;7.00;6.25;;;;;16.64;100.00;101447.78;5076353;28;46093;-81
2022/06/09 07:26:52;;;;;;;;;5.00;5.00;;;;;16.67;100.00;101440.03;5077448;28;45232;-81
2022/06/09 07:29:18;;;;;;;;;9.00;5.00;;;;;16.66;100.00;101447.81;5078748;27;45303;-84
2022/06/09 07:31:44;;;;;;;;;6.00;3.25;;;;;16.71;100.00;101462.81;5079836;27;45496;-83
2022/06/09 07:34:10;;;;;;;;;4.75;4.50;;;;;16.73;100.00;101462.88;5078743;28;45605;-84
2022/06/09 07:36:36;;;;;;;;;5.00;2.75;;;;;16.70;100.00;101453.19;5079058;27;45282;-80
2022/06/09 07:39:03;;;;;;;;;7.75;5.75;;;;;16.74;100.00;101461.13;5078645;28;45354;-82
2022/06/09 07:41:29;;;;;;;;;8.50;4.00;;;;;16.80;100.00;101466.53;5084830;27;45678;-82
2022/06/09 07:43:54;;;;;;;;;6.00;6.00;;;;;16.85;100.00;101457.09;5084567;27;45276;-81
2022/06/09 07:46:20;;;;;;;;;5.75;5.25;;;;;17.06;100.00;101469.06;5079747;28;45952;-80
2022/06/09 07:48:46;;;;;;;;;7.00;4.25;;;;;17.09;100.00;101469.16;5082575;28;45232;-80
2022/06/09 07:51:12;;;;;;;;;10.00;5.00;;;;;17.08;100.00;101465.63;5077559;28;45486;-78
2022/06/09 07:53:38;;;;;;;;;6.00;5.00;;;;;17.07;100.00;101479.56;5076952;28;46048;-78
2022/06/09 07:56:03;;;;;;;;;3.50;3.25;;;;;17.05;100.00;101475.13;5077586;27;45517;-81
2022/06/09 07:58:30;;;;;;;;;5.00;5.00;;;;;16.96;100.00;101467.91;5077347;28;45386;-79
2022/06/09 08:00:55;;;;;;;;;7.75;3.75;;;;;16.79;100.00;101443.88;5077808;28;45589;-83
2022/06/09 08:03:24;;;;;;;;;4.25;4.00;;;;;16.94;100.00;101464.38;5076015;27;45932;-82
2022/06/09 08:05:50;;;;;;;;;4.00;4.00;;;;;16.91;100.00;101464.25;5076470;27;45349;-83
2022/06/09 08:08:17;;;;;;;;;5.00;3.00;;;;;16.93;100.00;101466.06;5076643;27;45240;-79
2022/06/09 08:10:44;;;;;;;;;6.00;5.25;;;;;16.91;100.00;101464.25;5076911;28;45346;-81
2022/06/09 08:13:11;;;;;;;;;8.50;5.75;;;;;16.97;100.00;101478.44;5076093;27;46188;-77
2022/06/09 08:15:42;;;;;;;;;6.25;5.75;;;;;17.05;100.00;101473.41;5076170;28;45883;-79
2022/06/09 08:18:07;;;;;;;;;7.50;4.75;;;;;17.08;100.00;101485.69;5075986;27;45354;-81
2022/06/09 08:20:37;;;;;;;;;5.00;5.00;;;;;17.06;100.00;101487.38;5058648;28;45374;-78
2022/06/09 08:23:18;;;;;;;;;3.25;3.25;;;;;17.12;100.00;101490.16;5057433;27;45622;-78
2022/06/09 08:25:45;;;;;;;;;5.50;5.50;;;;;17.10;100.00;101484.88;5081829;28;45772;-84
2022/06/09 08:28:13;;;;;;;;;8.75;6.00;;;;;17.13;100.00;101498.06;5083482;28;45319;-80
2022/06/09 08:30:39;;;;;;;;;7.25;4.00;;;;;17.09;100.00;101498.81;5080124;27;45509;-79
2022/06/09 08:33:06;;;;;;;;;6.00;4.00;;;;;16.99;100.00;101479.38;5079212;28;46596;-79
2022/06/09 08:35:34;;;;;;;;;4.50;4.25;;;;;17.17;100.00;101514.75;5076994;28;45899;-80
2022/06/09 08:37:59;;;;;;;;;5.25;3.75;;;;;17.13;100.00;101498.06;5076343;28;45512;-77
2022/06/09 08:40:36;;;;;;;;;6.25;5.50;;;;;17.30;100.00;101505.50;5076694;28;45304;-79
2022/06/09 08:43:10;;;;;;;;;6.75;5.00;;;;;17.39;98.52;101511.00;5075817;28;45480;-81
2022/06/09 08:45:40;;;;;;;;;6.00;5.00;;;;;17.45;98.58;101502.41;5075455;28;45425;-81
2022/06/09 08:48:11;;;;;;;;;4.00;4.00;;;;;17.48;96.96;101489.41;5037951;28;45340;-81
2022/06/09 08:50:42;;;;;;;;;9.25;6.75;;;;;17.48;95.79;101481.56;5072646;28;45421;-84
2022/06/09 08:53:31;;;;;;;;;4.75;4.00;;;;;17.59;93.64;101502.81;5074596;28;45410;-82
2022/06/09 08:56:03;;;;;;;;;7.75;4.00;;;;;17.63;93.15;101494.19;5052839;28;45755;-81
2022/06/09 08:58:47;;;;;;;;;4.00;2.25;;;;;17.66;92.08;101494.28;5076222;27;45355;-81
2022/06/09 09:01:19;;;;;;;;;6.50;3.00;;;;;17.72;92.06;101501.41;5067129;28;45465;-80
2022/06/09 09:03:52;;;;;;;;;5.25;5.00;;;;;17.86;92.09;101486.94;5074583;27;45528;-83
2022/06/09 09:06:24;;;;;;;;;3.25;3.00;;;;;18.00;90.33;101489.03;5074712;27;45549;-84
2022/06/09 09:08:51;;;;;;;;;6.25;4.00;;;;;18.19;88.69;101495.63;5077624;27;45409;-83
2022/06/09 09:11:39;;;;;;;;;3.25;3.00;;;;;18.20;87.89;101495.66;5071816;28;45352;-80
2022/06/09 09:14:20;;;;;;;;;3.00;3.00;;;;;18.16;86.44;101485.06;5069950;28;47216;-80
2022/06/09 09:16:56;;;;;;;;;5.75;3.50;;;;;18.29;85.64;101486.25;5062383;28;45423;-80
2022/06/09 09:20:01;;;;;;;;;6.00;5.75;;;;;18.47;85.42;101485.78;5061452;27;45380;-82
2022/06/09 09:22:49;;;;;;;;;4.00;4.00;;;;;18.61;84.92;101497.50;5081412;27;45475;-84
2022/06/09 09:25:44;;;;;;;;;2.00;2.00;;;;;18.66;82.04;101484.47;5078359;27;45411;-82
2022/06/09 09:28:19;;;;;;;;;4.00;3.00;;;;;18.85;81.42;101497.13;5061102;28;45771;-85
2022/06/09 09:31:00;;;;;;;;;4.75;3.00;;;;;18.99;82.03;101499.22;5062266;28;45401;-82
2022/06/09 09:33:28;;;;;;;;;4.00;3.75;;;;;19.12;80.66;101495.09;5079819;28;45426;-82
2022/06/09 09:35:59;;;;;;;;;4.00;3.00;;;;;19.20;78.34;101506.66;5079117;27;46081;-82
2022/06/09 09:38:34;;;;;;;;;3.00;2.75;;;;;19.09;79.62;101492.44;5079806;28;45711;-83
2022/06/09 09:41:01;;;;;;;;;6.75;3.75;;;;;19.10;79.94;101500.31;5077920;27;45470;-84
2022/06/09 09:43:39;;;;;;;;;3.25;2.00;;;;;19.15;78.54;101497.78;5079466;27;45605;-79
2022/06/09 09:46:38;;;;;;;;;3.00;1.00;;;;;19.16;77.38;101481.19;5079567;28;46345;-77
2022/06/09 09:49:15;;;;;;;;;6.00;3.00;;;;;19.29;77.36;101498.06;5078762;28;45848;-77
2022/06/09 09:51:46;;;;;;;;;2.00;2.00;;;;;19.37;76.62;101499.13;5076696;27;45442;-78
2022/06/09 09:54:28;;;;;;;;;3.00;2.00;;;;;19.63;74.47;101511.84;5081257;28;45381;-78
2022/06/09 09:57:16;;;;;;;;;3.25;2.50;;;;;19.83;73.98;101506.97;5080955;27;46251;-77
2022/06/09 09:59:54;;;;;;;;;3.25;2.00;;;;;19.94;72.51;101492.28;5078887;27;45204;-77
2022/06/09 10:08:39;;;;;;;;;2.00;2.00;;;;;20.45;67.78;101536.06;5077732;27;45494;-77
2022/06/09 10:14:03;;;;;;;;;3.50;3.00;;;;;19.95;69.73;101516.81;5078642;27;45362;-77
2022/06/09 10:16:32;;;;;;;;;2.75;2.00;;;;;19.86;69.32;101550.81;5079442;27;45534;-78
2022/06/09 10:19:03;;;;;;;;;3.00;2.50;;;;;19.72;69.13;101527.78;5078940;28;46375;-77
2022/06/09 10:21:48;;;;;;;;;1.75;1.75;;;;;19.72;68.20;101542.66;5078628;27;45975;-79
2022/06/09 10:24:20;;;;;;;;;2.50;2.50;;;;;19.72;69.16;101540.91;5069760;28;45339;-79
2022/06/09 10:26:51;;;;;;;;;2.75;2.75;;;;;19.76;69.72;101536.63;5058010;28;45859;-78
2022/06/09 10:29:24;;;;;;;;;4.00;2.00;;;;;19.88;68.26;101538.59;5076169;28;45888;-79
2022/06/09 10:32:03;;;;;;;;;5.50;5.00;;;;;19.91;68.55;101541.31;5075913;28;45329;-80
2022/06/09 10:34:48;;;;;;;;;3.25;2.25;;;;;19.91;67.42;101549.19;5076376;28;45370;-79
2022/06/09 10:37:36;;;;;;;;;3.25;2.75;;;;;19.93;67.75;101548.34;5078984;28;45477;-80
2022/06/09 10:40:28;;;;;;;;;2.00;1.00;;;;;19.87;67.22;101526.31;5079854;28;45418;-81
2022/06/09 10:42:57;;;;;;;;;2.50;2.50;;;;;20.05;66.81;101531.88;5080252;27;45374;-77
2022/06/09 10:45:39;;;;;;;;;5.00;3.00;;;;;20.04;66.71;101513.47;5090896;27;45311;-82
2022/06/09 10:57:27;;;;;;;;;5.00;2.00;;;;;20.37;67.94;101549.94;5077141;27;45491;-78
2022/06/09 11:00:04;;;;;;;;;2.00;2.00;;;;;20.26;66.13;101527.84;5080028;27;45304;-83
2022/06/09 11:02:33;;;;;;;;;4.50;3.00;;;;;20.41;66.50;101559.66;5080942;27;45459;-83
2022/06/09 11:04:59;;;;;;;;;2.75;2.75;;;;;20.53;65.17;101560.72;5078763;28;45788;-87
2022/06/09 11:07:44;;;;;;;;;2.50;2.50;;;;;20.60;65.12;101553.81;5060377;28;45666;-84
2022/06/09 11:10:20;;;;;;;;;3.75;2.00;;;;;20.69;64.52;101567.09;5081600;28;45265;-81
2022/06/09 11:13:08;;;;;;;;;5.75;3.25;;;;;20.73;63.87;101548.75;5088798;27;45511;-85
2022/06/09 11:16:10;;;;;;;;;2.50;2.00;;;;;20.71;61.47;101542.56;5082321;27;45335;-83
2022/06/09 11:18:43;;;;;;;;;2.75;2.25;;;;;20.87;61.22;101558.63;5074404;27;45405;-83
2022/06/09 11:21:37;;;;;;;;;2.00;2.00;;;;;20.86;60.01;101556.84;5053582;28;45407;-83
2022/06/09 11:24:13;;;;;;;;;1.00;1.00;;;;;20.84;61.57;101555.94;5079630;27;46037;-89
2022/06/09 11:26:47;;;;;;;;;3.00;2.25;;;;;20.87;59.45;101561.25;5096054;27;45452;-81
2022/06/09 11:29:35;;;;;;;;;3.25;2.00;;;;;20.95;59.33;101564.00;5067400;28;45481;-75
2022/06/09 11:32:10;;;;;;;;;3.00;2.00;;;;;20.82;60.29;101523.44;5073286;27;45275;-84
2022/06/09 11:35:01;;;;;;;;;3.00;2.00;;;;;21.15;59.68;101564.25;5084127;27;46184;-84
2022/06/09 11:37:51;;;;;;;;;2.00;2.00;;;;;21.32;58.06;101562.75;5087635;27;45496;-88
2022/06/09 11:40:48;;;;;;;;;3.25;3.00;;;;;21.44;56.06;101566.34;5092550;27;45894;-87
2022/06/09 11:43:29;;;;;;;;;3.00;3.00;;;;;21.59;55.59;101571.84;5071892;28;45434;-83
2022/06/09 11:46:02;;;;;;;;;1.00;1.00;;;;;21.71;54.65;101567.59;5092532;28;46392;-86
2022/06/09 11:48:39;;;;;;;;;4.00;2.75;;;;;21.70;54.60;101534.19;5085255;27;45481;-91
2022/06/09 11:51:06;;;;;;;;;4.50;3.00;;;;;21.86;55.13;101553.69;5084310;27;45284;-86
2022/06/09 11:53:37;;;;;;;;;2.00;1.75;;;;;21.85;54.00;101526.44;5091412;27;45679;-88
2022/06/09 11:56:43;;;;;;;;;2.00;1.50;;;;;22.04;53.96;101560.88;5080182;28;45325;-88
2022/06/09 11:59:12;;;;;;;;;2.75;2.50;;;;;22.06;54.88;101560.03;5027528;28;45699;-91
2022/06/09 12:01:37;;;;;;;;;3.00;2.00;;;;;22.18;54.58;101572.47;5081543;28;45346;-87
2022/06/09 12:04:31;;;;;;;;;1.25;1.25;;;;;22.22;53.12;101561.03;5072347;27;45465;-89